Time;durP1;ratioP1;P1;durP2;ratioP2;P2;SDS_P1;SDS_P2;PMS_P1;PMS_P2;Temp;Humidity;BMP_temperature;BMP_pressure;BME280_temperature;BME280_humidity;BME280_pressure;Samples;Min_cycle;Max_cycle;Signal;HPM_P1;HPM_P2
2021/01/12 00:01:58;;;;;;;11.18;3.28;;;-1.50;98.00;;;;;;4167039;28;20041;-87
2021/01/12 00:03:59;;;;;;;2.33;2.13;;;-1.40;97.90;;;;;;4164656;28;20061;-88
2021/01/12 00:06:01;;;;;;;3.80;3.42;;;-1.40;98.00;;;;;;4150491;28;20145;-88
2021/01/12 00:08:07;;;;;;;3.65;3.05;;;-1.40;97.70;;;;;;4149540;28;20046;-87
2021/01/12 00:10:10;;;;;;;2.53;1.77;;;-1.40;97.50;;;;;;4166218;28;20076;-88
2021/01/12 00:12:11;;;;;;;4.22;3.90;;;-1.30;97.40;;;;;;4165280;28;20049;-87
2021/01/12 00:16:32;;;;;;;1.95;1.48;;;-1.40;97.50;;;;;;4169642;28;20132;-88
2021/01/12 00:18:34;;;;;;;2.40;2.20;;;-1.30;97.30;;;;;;4148650;28;20057;-87
2021/01/12 00:20:35;;;;;;;1.85;1.65;;;-1.30;97.20;;;;;;4148846;28;20084;-87
2021/01/12 00:22:37;;;;;;;4.97;4.20;;;-1.30;97.00;;;;;;4149123;28;20046;-87
2021/01/12 00:24:39;;;;;;;2.60;2.40;;;-1.30;97.00;;;;;;4164301;28;20495;-87
2021/01/12 00:26:41;;;;;;;2.47;2.33;;;-1.30;97.10;;;;;;4149108;28;20054;-87
2021/01/12 00:28:43;;;;;;;2.72;2.53;;;-1.30;97.20;;;;;;4165256;28;20084;-87
2021/01/12 00:30:44;;;;;;;3.38;2.80;;;-1.30;97.50;;;;;;4148368;28;20060;-87
2021/01/12 00:32:45;;;;;;;3.55;2.65;;;-1.40;97.30;;;;;;4148286;28;20084;-88
2021/01/12 00:34:47;;;;;;;4.45;2.88;;;-1.40;97.20;;;;;;4165112;28;20054;-87
2021/01/12 00:36:49;;;;;;;3.90;3.60;;;-1.40;97.30;;;;;;4164624;28;20056;-87
2021/01/12 00:38:51;;;;;;;1.70;1.58;;;-1.40;97.30;;;;;;4148210;28;20515;-87
2021/01/12 00:40:52;;;;;;;2.17;2.05;;;-1.30;97.40;;;;;;4165157;28;20049;-87
2021/01/12 00:42:54;;;;;;;2.15;2.05;;;-1.30;97.50;;;;;;4147976;28;20446;-87
2021/01/12 00:44:56;;;;;;;4.80;4.20;;;-1.40;97.60;;;;;;4148104;28;20041;-87
2021/01/12 00:46:57;;;;;;;1.48;1.42;;;-1.40;97.60;;;;;;4150235;28;20137;-88
2021/01/12 00:48:58;;;;;;;3.50;2.70;;;-1.30;97.50;;;;;;4132284;28;20058;-87
2021/01/12 00:51:00;;;;;;;4.43;4.03;;;-1.30;97.50;;;;;;4150750;28;20056;-87
2021/01/12 00:53:01;;;;;;;3.00;2.28;;;-1.30;97.50;;;;;;4148934;28;20056;-88
2021/01/12 00:55:02;;;;;;;3.58;2.38;;;-1.30;97.50;;;;;;4163912;28;20065;-88
2021/01/12 00:57:04;;;;;;;1.63;1.50;;;-1.40;97.40;;;;;;4149143;28;20073;-87
2021/01/12 00:59:05;;;;;;;2.15;2.05;;;-1.40;97.50;;;;;;4147672;28;20046;-87
2021/01/12 01:01:06;;;;;;;2.45;2.33;;;-1.30;97.40;;;;;;4148155;28;20085;-87
2021/01/12 01:03:08;;;;;;;4.50;2.60;;;-1.20;97.10;;;;;;4165018;28;20048;-87
2021/01/12 01:05:10;;;;;;;3.55;2.90;;;-1.20;96.80;;;;;;4147844;28;20109;-88
2021/01/12 01:07:12;;;;;;;3.72;2.47;;;-1.20;96.80;;;;;;4147816;28;20041;-87
2021/01/12 01:09:13;;;;;;;1.55;1.45;;;-1.20;97.00;;;;;;4165923;28;20140;-88
2021/01/12 01:11:14;;;;;;;4.30;2.92;;;-1.30;96.90;;;;;;4149113;28;20096;-88
2021/01/12 01:13:16;;;;;;;3.92;2.85;;;-1.30;97.20;;;;;;4164631;28;20053;-88
2021/01/12 01:15:17;;;;;;;1.90;1.77;;;-1.30;97.10;;;;;;4163781;28;20053;-86
2021/01/12 01:17:18;;;;;;;5.88;3.25;;;-1.20;96.90;;;;;;4148348;28;20049;-88
2021/01/12 01:19:20;;;;;;;4.90;2.78;;;-1.30;97.00;;;;;;4164690;28;20045;-87
2021/01/12 01:21:21;;;;;;;2.72;2.45;;;-1.20;96.80;;;;;;4147217;28;20084;-88
2021/01/12 01:23:23;;;;;;;2.13;1.80;;;-1.10;96.40;;;;;;4158969;28;20596;-88
2021/01/12 01:25:24;;;;;;;3.70;3.40;;;-1.10;96.30;;;;;;4148339;28;20054;-88
2021/01/12 01:27:25;;;;;;;2.80;2.50;;;-1.20;96.50;;;;;;4147290;28;20054;-87
2021/01/12 01:29:27;;;;;;;4.63;3.28;;;-1.20;96.70;;;;;;4146676;28;20132;-88
2021/01/12 01:31:36;;;;;;;2.97;2.17;;;-1.20;96.80;;;;;;4164367;28;20140;-89
2021/01/12 01:33:37;;;;;;;3.50;2.63;;;-1.20;96.80;;;;;;4160110;28;20419;-88
2021/01/12 01:35:38;;;;;;;1.92;1.83;;;-1.30;96.80;;;;;;4182533;28;20076;-88
2021/01/12 01:37:40;;;;;;;1.85;1.75;;;-1.30;97.00;;;;;;4163629;28;20060;-87
2021/01/12 01:39:42;;;;;;;4.63;3.17;;;-1.30;97.10;;;;;;4163684;28;20076;-88
2021/01/12 01:41:45;;;;;;;1.63;1.52;;;-1.20;97.00;;;;;;4166028;28;20399;-88
2021/01/12 01:43:46;;;;;;;3.20;2.55;;;-1.20;97.00;;;;;;4150305;28;20584;-88
2021/01/12 01:45:47;;;;;;;3.70;3.40;;;-1.30;96.70;;;;;;4147043;28;20152;-88
2021/01/12 01:47:49;;;;;;;4.15;3.75;;;-1.20;96.60;;;;;;4148306;28;20103;-87
2021/01/12 01:49:50;;;;;;;3.00;2.28;;;-1.30;96.70;;;;;;4148028;28;20425;-87
2021/01/12 01:51:52;;;;;;;2.55;2.35;;;-1.20;96.70;;;;;;4147087;28;20045;-88
2021/01/12 01:53:54;;;;;;;4.22;3.75;;;-1.30;96.50;;;;;;4149559;28;20136;-87
2021/01/12 01:55:58;;;;;;;5.38;4.05;;;-1.30;96.70;;;;;;4150038;28;20141;-88
2021/01/12 01:57:59;;;;;;;3.85;3.58;;;-1.30;96.60;;;;;;4150888;28;20064;-87
2021/01/12 02:00:02;;;;;;;2.30;2.15;;;-1.30;96.50;;;;;;4167481;28;20140;-87
2021/01/12 02:02:06;;;;;;;4.35;3.47;;;-1.30;96.70;;;;;;4168975;28;20469;-88
2021/01/12 02:04:30;;;;;;;5.15;3.72;;;-1.30;96.70;;;;;;4151938;28;20058;-88
2021/01/12 02:06:32;;;;;;;5.35;4.85;;;-1.20;96.50;;;;;;4184728;28;20107;-88
2021/01/12 02:08:55;;;;;;;2.83;2.63;;;-1.10;96.30;;;;;;4170636;28;20492;-88
2021/01/12 02:10:59;;;;;;;4.63;2.85;;;-1.10;96.40;;;;;;4155556;28;20140;-88
2021/01/12 02:13:01;;;;;;;4.70;4.20;;;-1.10;96.50;;;;;;4150225;28;20132;-89
2021/01/12 02:15:02;;;;;;;5.00;4.57;;;-1.20;96.60;;;;;;4152644;28;20053;-88
2021/01/12 02:17:04;;;;;;;4.53;3.38;;;-1.20;96.80;;;;;;4150734;28;20045;-89
2021/01/12 02:19:05;;;;;;;5.18;3.85;;;-1.20;96.80;;;;;;4150073;28;20148;-87
2021/01/12 02:21:07;;;;;;;7.65;3.00;;;-1.10;96.50;;;;;;4152478;28;20056;-87
2021/01/12 02:23:16;;;;;;;6.63;4.95;;;-1.20;96.60;;;;;;4167027;28;20118;-87
2021/01/12 02:25:17;;;;;;;2.67;2.45;;;-1.20;96.70;;;;;;4167138;28;20517;-88
2021/01/12 02:27:22;;;;;;;7.65;4.32;;;-1.10;96.70;;;;;;4149903;28;20095;-87
2021/01/12 02:29:23;;;;;;;6.40;4.00;;;-1.10;96.70;;;;;;4168669;28;20144;-88
2021/01/12 02:31:29;;;;;;;4.78;4.38;;;-1.20;96.60;;;;;;4151000;28;20064;-88
2021/01/12 02:33:31;;;;;;;7.80;4.13;;;-1.10;96.70;;;;;;4149782;28;20045;-89
2021/01/12 02:35:34;;;;;;;5.93;3.92;;;-1.10;96.80;;;;;;4152778;28;20050;-88
2021/01/12 02:37:35;;;;;;;4.53;3.30;;;-1.10;96.80;;;;;;4150619;28;20522;-88
2021/01/12 02:39:36;;;;;;;2.17;1.55;;;-1.10;96.40;;;;;;4166279;28;20045;-89
2021/01/12 02:41:38;;;;;;;4.50;4.10;;;-1.10;96.60;;;;;;4166828;28;20060;-88
2021/01/12 02:43:40;;;;;;;19.15;2.88;;;-1.10;96.50;;;;;;4150083;28;20046;-88
2021/01/12 02:45:41;;;;;;;2.15;1.98;;;-1.10;96.50;;;;;;4149655;28;20045;-88
2021/01/12 02:47:43;;;;;;;3.63;3.33;;;-1.10;96.40;;;;;;4150488;28;20052;-87
2021/01/12 02:49:44;;;;;;;4.05;3.47;;;-1.10;96.40;;;;;;4170826;28;20062;-88
2021/01/12 02:51:45;;;;;;;2.97;2.55;;;-1.10;96.60;;;;;;4168690;28;20051;-87
2021/01/12 02:53:47;;;;;;;11.07;4.22;;;-1.10;96.60;;;;;;4148814;28;20145;-88
2021/01/12 02:55:48;;;;;;;2.53;2.33;;;-1.00;96.50;;;;;;4166596;28;20133;-88
2021/01/12 02:57:49;;;;;;;8.90;3.75;;;-1.10;96.40;;;;;;4165987;28;20053;-88
2021/01/12 02:59:50;;;;;;;3.90;3.58;;;-1.10;96.50;;;;;;4144399;28;20125;-88
2021/01/12 03:01:52;;;;;;;3.30;3.03;;;-1.00;96.60;;;;;;4169598;28;20057;-88
2021/01/12 03:03:53;;;;;;;3.90;3.60;;;-1.00;96.50;;;;;;4149255;28;20408;-88
2021/01/12 03:05:54;;;;;;;3.83;3.58;;;-1.00;96.40;;;;;;4149863;28;20129;-88
2021/01/12 03:07:56;;;;;;;1.70;1.63;;;-1.00;96.40;;;;;;4149761;28;20049;-88
2021/01/12 03:09:57;;;;;;;3.10;2.63;;;-0.90;96.20;;;;;;4149265;28;20060;-88
2021/01/12 03:11:58;;;;;;;3.60;3.30;;;-1.00;96.20;;;;;;4166185;28;20069;-87
2021/01/12 03:14:00;;;;;;;3.15;2.58;;;-1.00;96.50;;;;;;4167430;28;20054;-88
2021/01/12 03:16:01;;;;;;;6.70;4.40;;;-1.10;96.60;;;;;;4182034;28;20452;-88
2021/01/12 03:18:02;;;;;;;6.03;4.45;;;-1.10;96.70;;;;;;4167607;28;20042;-87
2021/01/12 03:20:06;;;;;;;2.42;2.08;;;-1.20;97.00;;;;;;4150232;28;20096;-88
2021/01/12 03:22:07;;;;;;;2.17;2.03;;;-1.10;96.90;;;;;;4149512;28;20054;-88
2021/01/12 03:24:09;;;;;;;3.25;2.78;;;-1.10;96.90;;;;;;4164524;28;20060;-88
2021/01/12 03:26:10;;;;;;;4.15;2.80;;;-1.10;96.90;;;;;;4165775;28;20046;-88
2021/01/12 03:28:11;;;;;;;9.40;3.13;;;-1.10;96.90;;;;;;4165942;28;20055;-88
2021/01/12 03:30:13;;;;;;;1.88;1.77;;;-1.10;97.00;;;;;;4165684;28;20049;-88
2021/01/12 03:32:14;;;;;;;7.72;4.85;;;-1.10;97.30;;;;;;4165972;28;20049;-88
2021/01/12 03:34:16;;;;;;;3.03;2.83;;;-1.20;97.10;;;;;;4166442;28;20591;-88
2021/01/12 03:36:18;;;;;;;4.90;4.38;;;-1.10;97.00;;;;;;4149007;28;20077;-88
2021/01/12 03:38:19;;;;;;;3.10;2.85;;;-1.10;96.80;;;;;;4148096;28;20068;-86
2021/01/12 03:40:20;;;;;;;2.75;2.55;;;-1.00;96.80;;;;;;4166785;28;20057;-85
2021/01/12 03:42:21;;;;;;;2.60;2.40;;;-1.10;96.90;;;;;;4150216;28;20132;-87
2021/01/12 03:44:23;;;;;;;6.30;3.58;;;-1.10;97.10;;;;;;4151592;28;20065;-86
2021/01/12 03:46:24;;;;;;;5.72;4.43;;;-1.00;97.10;;;;;;4149413;28;20141;-85
2021/01/12 03:48:26;;;;;;;4.07;3.65;;;-1.00;97.00;;;;;;4148604;28;20050;-86
2021/01/12 03:50:27;;;;;;;2.45;2.25;;;-1.00;96.90;;;;;;4150868;28;20081;-85
2021/01/12 03:52:29;;;;;;;2.22;2.03;;;-1.10;97.00;;;;;;4151309;28;20053;-85
2021/01/12 03:54:31;;;;;;;6.68;4.22;;;-1.10;97.40;;;;;;4164944;28;20063;-84
2021/01/12 03:56:32;;;;;;;6.07;3.90;;;-1.10;97.30;;;;;;4165334;28;20055;-86
2021/01/12 03:58:33;;;;;;;5.13;4.70;;;-1.10;97.40;;;;;;4149705;28;20049;-86
2021/01/12 04:00:34;;;;;;;1.75;1.65;;;-1.00;97.40;;;;;;4148285;28;20050;-85
2021/01/12 04:02:36;;;;;;;3.95;2.78;;;-1.00;97.20;;;;;;4149603;28;20054;-85
2021/01/12 04:04:37;;;;;;;3.08;2.42;;;-1.00;97.50;;;;;;4165885;28;20095;-86
2021/01/12 04:06:40;;;;;;;4.13;2.92;;;-1.00;97.40;;;;;;4165150;28;20061;-85
2021/01/12 04:08:43;;;;;;;15.48;4.47;;;-1.00;97.70;;;;;;4166837;28;20164;-86
2021/01/12 04:10:44;;;;;;;5.30;2.55;;;-1.00;97.70;;;;;;4167123;28;20045;-86
2021/01/12 04:12:45;;;;;;;3.47;3.15;;;-1.00;97.70;;;;;;4148855;28;20503;-85
2021/01/12 04:14:46;;;;;;;12.68;2.88;;;-1.00;97.80;;;;;;4149951;28;20052;-85
2021/01/12 04:16:49;;;;;;;16.83;3.25;;;-1.10;98.00;;;;;;4166613;28;20091;-86
2021/01/12 04:18:50;;;;;;;2.60;2.40;;;-1.10;98.20;;;;;;4147974;28;20101;-86
2021/01/12 04:20:52;;;;;;;6.30;3.95;;;-1.10;98.10;;;;;;4165232;28;20148;-86
2021/01/12 04:22:53;;;;;;;2.00;1.50;;;-1.10;98.00;;;;;;4137062;28;20042;-86
2021/01/12 04:24:54;;;;;;;2.63;2.47;;;-1.10;97.90;;;;;;4163220;28;20049;-88
2021/01/12 04:26:56;;;;;;;3.17;2.97;;;-1.00;97.90;;;;;;4141514;28;20042;-86
2021/01/12 04:28:57;;;;;;;2.58;2.40;;;-1.00;98.10;;;;;;4171112;28;20055;-86
2021/01/12 04:30:58;;;;;;;3.60;3.20;;;-1.00;98.10;;;;;;4165024;28;20132;-87
2021/01/12 04:33:00;;;;;;;6.38;4.80;;;-1.10;98.00;;;;;;4148811;28;20050;-86
2021/01/12 04:35:01;;;;;;;5.05;4.18;;;-1.00;98.10;;;;;;4165345;28;20065;-86
2021/01/12 04:37:02;;;;;;;7.18;2.75;;;-1.00;98.00;;;;;;4148327;28;20065;-86
2021/01/12 04:39:04;;;;;;;2.20;2.10;;;-1.00;98.40;;;;;;4164962;28;20045;-86
2021/01/12 04:41:06;;;;;;;3.33;2.15;;;-1.00;98.10;;;;;;4143133;28;20050;-86
2021/01/12 04:43:07;;;;;;;5.35;2.60;;;-1.00;98.10;;;;;;4164368;28;20146;-86
2021/01/12 04:45:09;;;;;;;2.35;2.17;;;-1.00;98.20;;;;;;4146421;28;20567;-86
2021/01/12 04:47:10;;;;;;;2.83;2.35;;;-1.00;98.30;;;;;;4147427;28;20615;-86
2021/01/12 04:49:12;;;;;;;2.88;2.30;;;-1.00;98.30;;;;;;4147902;28;20450;-86
2021/01/12 04:51:13;;;;;;;2.20;2.08;;;-1.00;98.20;;;;;;4149946;28;20139;-87
2021/01/12 04:53:14;;;;;;;1.77;1.42;;;-1.10;98.30;;;;;;4144204;28;20065;-85
2021/01/12 04:55:16;;;;;;;5.47;4.97;;;-1.00;98.10;;;;;;4148755;28;20054;-88
2021/01/12 04:57:17;;;;;;;3.55;3.25;;;-1.00;98.20;;;;;;4162119;28;20063;-88
2021/01/12 04:59:27;;;;;;;3.75;2.70;;;-1.00;98.10;;;;;;4157786;28;20097;-88
2021/01/12 05:01:29;;;;;;;4.93;3.63;;;-0.90;98.20;;;;;;4162354;28;20592;-88
2021/01/12 05:03:30;;;;;;;3.28;2.95;;;-0.90;98.10;;;;;;4163859;28;20087;-89
2021/01/12 05:05:33;;;;;;;4.60;2.30;;;-0.80;97.80;;;;;;4164716;28;20224;-89
2021/01/12 05:07:38;;;;;;;8.88;4.22;;;-0.80;97.60;;;;;;4149815;28;20064;-89
2021/01/12 05:09:39;;;;;;;;;;;-0.80;97.80;;;;;;4164848;28;20089;-89
2021/01/12 05:11:40;;;;;;;2.15;2.05;;;-0.70;97.70;;;;;;4164309;28;19921;-88
2021/01/12 05:13:45;;;;;;;10.05;3.78;;;-0.80;97.60;;;;;;4164471;28;20052;-88
2021/01/12 05:15:47;;;;;;;3.90;3.55;;;-0.70;97.70;;;;;;4148373;28;20069;-88
2021/01/12 05:17:49;;;;;;;8.35;4.10;;;-0.80;98.00;;;;;;4165315;28;20128;-87
2021/01/12 05:19:54;;;;;;;2.95;2.78;;;-0.80;98.20;;;;;;4149735;28;20053;-88
2021/01/12 05:22:02;;;;;;;7.60;4.95;;;-0.90;98.00;;;;;;4163527;28;20053;-86
2021/01/12 05:24:06;;;;;;;6.93;4.05;;;-0.90;97.90;;;;;;4159072;28;20048;-88
2021/01/12 05:26:07;;;;;;;5.45;4.80;;;-0.90;98.30;;;;;;4164701;28;20103;-88
2021/01/12 05:28:10;;;;;;;4.38;3.53;;;-0.90;98.20;;;;;;4147343;28;20050;-88
2021/01/12 05:30:11;;;;;;;4.78;4.38;;;-0.90;98.30;;;;;;4166402;28;20060;-87
2021/01/12 05:32:13;;;;;;;2.63;2.53;;;-0.90;98.30;;;;;;4147797;28;20136;-88
2021/01/12 05:34:17;;;;;;;3.08;2.78;;;-0.90;98.30;;;;;;4148244;28;20098;-88
2021/01/12 05:36:19;;;;;;;6.63;4.97;;;-0.90;98.10;;;;;;4180525;28;20064;-88
2021/01/12 05:38:28;;;;;;;3.05;2.80;;;-0.90;98.10;;;;;;4149706;28;20058;-87
2021/01/12 05:40:34;;;;;;;6.50;4.20;;;-0.80;97.90;;;;;;4149205;28;20505;-88
2021/01/12 05:42:39;;;;;;;5.07;4.72;;;-0.80;97.90;;;;;;4131645;28;20070;-89
2021/01/12 05:44:41;;;;;;;8.80;4.65;;;-0.80;98.00;;;;;;4180439;28;20051;-88
2021/01/12 05:46:43;;;;;;;4.10;3.63;;;-0.90;98.10;;;;;;4149520;28;20605;-88
2021/01/12 05:48:45;;;;;;;2.00;1.52;;;-0.90;98.30;;;;;;4147079;28;20084;-88
2021/01/12 05:50:48;;;;;;;9.05;4.10;;;-0.90;98.30;;;;;;4164491;28;20103;-89
2021/01/12 05:52:57;;;;;;;3.97;2.25;;;-0.80;98.10;;;;;;4148034;28;20128;-89
2021/01/12 05:55:04;;;;;;;4.90;3.83;;;-0.80;98.10;;;;;;4147723;28;20053;-88
2021/01/12 05:57:06;;;;;;;1.90;1.77;;;-0.70;98.20;;;;;;4149119;28;20045;-88
2021/01/12 05:59:23;;;;;;;1.95;1.77;;;-0.80;98.20;;;;;;4154090;28;20395;-88
2021/01/12 06:01:46;;;;;;;4.90;4.55;;;-0.80;98.20;;;;;;4134563;28;20144;-88
2021/01/12 06:03:47;;;;;;;3.90;2.92;;;-0.90;98.30;;;;;;4161535;28;20081;-88
2021/01/12 06:05:49;;;;;;;4.28;2.65;;;-0.90;98.60;;;;;;4146279;28;20054;-88
2021/01/12 06:07:51;;;;;;;6.55;3.13;;;-0.90;98.50;;;;;;4147990;28;20135;-88
2021/01/12 06:09:54;;;;;;;9.18;2.25;;;-0.90;98.50;;;;;;4163550;28;20140;-89
2021/01/12 06:11:56;;;;;;;2.95;2.75;;;-0.90;98.50;;;;;;4180232;28;20049;-88
2021/01/12 06:14:09;;;;;;;2.47;2.38;;;-0.90;98.80;;;;;;4148213;28;20526;-86
2021/01/12 06:16:15;;;;;;;2.45;1.60;;;-0.80;98.40;;;;;;4133652;28;20058;-87
2021/01/12 06:18:17;;;;;;;6.72;4.07;;;-0.80;98.30;;;;;;4147077;28;20076;-87
2021/01/12 06:20:18;;;;;;;4.78;3.53;;;-0.80;98.40;;;;;;4148737;28;20097;-87
2021/01/12 06:22:23;;;;;;;4.13;3.83;;;-0.90;98.70;;;;;;4147856;28;20141;-88
2021/01/12 06:24:31;;;;;;;3.55;3.13;;;-0.80;98.60;;;;;;4147653;28;20057;-88
2021/01/12 06:26:32;;;;;;;2.00;1.83;;;-0.80;98.50;;;;;;4163400;28;20045;-89
2021/01/12 06:28:33;;;;;;;4.93;4.20;;;-0.80;98.90;;;;;;4165503;28;20494;-88
2021/01/12 06:30:34;;;;;;;3.92;3.55;;;-0.90;98.80;;;;;;4146729;28;20555;-88
2021/01/12 06:32:37;;;;;;;3.13;2.83;;;-0.90;98.90;;;;;;4163641;28;20124;-87
2021/01/12 06:34:39;;;;;;;8.35;3.58;;;-0.90;98.80;;;;;;4164066;28;20490;-87
2021/01/12 06:36:40;;;;;;;3.95;3.65;;;-0.90;98.80;;;;;;4147107;28;20133;-88
2021/01/12 06:38:41;;;;;;;1.40;1.35;;;-0.80;98.70;;;;;;4143194;28;20052;-88
2021/01/12 06:40:43;;;;;;;2.75;2.55;;;-0.80;99.00;;;;;;4163479;28;20057;-88
2021/01/12 06:42:44;;;;;;;3.75;3.03;;;-0.80;98.90;;;;;;4148125;28;20069;-88
2021/01/12 06:44:45;;;;;;;3.63;3.28;;;-0.80;98.80;;;;;;4150281;28;20057;-87
2021/01/12 06:46:48;;;;;;;3.08;2.88;;;-0.80;98.90;;;;;;4150517;28;20141;-89
2021/01/12 06:48:50;;;;;;;6.85;2.97;;;-0.90;99.10;;;;;;4166607;28;20140;-87
2021/01/12 06:50:52;;;;;;;9.38;4.25;;;-0.80;99.20;;;;;;4152037;28;20053;-88
2021/01/12 06:52:53;;;;;;;10.23;3.30;;;-0.90;99.20;;;;;;4168121;28;20045;-88
2021/01/12 06:55:03;;;;;;;2.63;2.13;;;-0.90;99.20;;;;;;4148500;28;20171;-88
2021/01/12 06:57:12;;;;;;;3.03;2.75;;;-0.80;99.20;;;;;;4152837;28;20049;-87
2021/01/12 06:59:14;;;;;;;3.40;2.38;;;-0.80;99.30;;;;;;4152179;28;20457;-88
2021/01/12 07:01:22;;;;;;;4.97;3.67;;;-0.80;99.10;;;;;;4149872;28;20052;-88
2021/01/12 07:03:28;;;;;;;4.28;2.58;;;-0.80;99.20;;;;;;4149803;28;20133;-88
2021/01/12 07:05:42;;;;;;;4.75;4.13;;;-0.70;99.20;;;;;;4166513;28;20041;-84
2021/01/12 07:07:47;;;;;;;2.47;1.80;;;-0.80;99.20;;;;;;4183576;28;20068;-88
2021/01/12 07:09:48;;;;;;;9.50;4.70;;;-0.70;99.30;;;;;;4165425;28;20042;-86
2021/01/12 07:11:49;;;;;;;5.30;2.80;;;-0.70;99.40;;;;;;4182424;28;20056;-87
2021/01/12 07:13:51;;;;;;;3.45;2.63;;;-0.70;99.40;;;;;;4183959;28;20451;-90
2021/01/12 07:15:54;;;;;;;1.77;1.67;;;-0.70;99.30;;;;;;4164088;28;20050;-90
2021/01/12 07:18:06;;;;;;;9.07;4.43;;;-0.70;99.30;;;;;;4183824;28;20044;-93
2021/01/12 07:20:15;;;;;;;2.55;2.42;;;-0.70;99.30;;;;;;4182946;28;20049;-89
2021/01/12 07:22:19;;;;;;;4.35;2.75;;;-0.70;99.60;;;;;;4166581;28;20050;-87
2021/01/12 07:24:20;;;;;;;2.75;2.17;;;-0.70;99.40;;;;;;4182055;28;20103;-87
2021/01/12 07:26:21;;;;;;;6.53;2.72;;;-0.70;99.30;;;;;;4167252;28;20112;-88
2021/01/12 07:28:23;;;;;;;4.13;3.08;;;-0.60;99.10;;;;;;4183235;28;20056;-86
2021/01/12 07:30:24;;;;;;;4.50;3.53;;;-0.60;98.90;;;;;;4183341;28;20048;-86
2021/01/12 07:32:33;;;;;;;5.85;2.85;;;-0.50;98.90;;;;;;4150123;28;20053;-88
2021/01/12 07:34:37;;;;;;;3.17;2.10;;;-0.50;99.00;;;;;;4183524;28;20045;-90
2021/01/12 07:36:38;;;;;;;1.90;1.80;;;-0.60;99.20;;;;;;4149349;28;20418;-88
2021/01/12 07:38:40;;;;;;;3.45;3.15;;;-0.60;99.20;;;;;;4182580;28;20128;-89
2021/01/12 07:40:41;;;;;;;3.58;3.28;;;-0.50;99.10;;;;;;4166547;28;20452;-88
2021/01/12 07:42:59;;;;;;;3.40;3.10;;;-0.50;99.10;;;;;;4184057;28;20063;-89
2021/01/12 07:45:01;;;;;;;3.58;2.22;;;-0.50;99.10;;;;;;4181200;28;20076;-89
2021/01/12 07:47:05;;;;;;;2.85;2.65;;;-0.50;99.00;;;;;;4194550;28;20535;-90
2021/01/12 07:49:06;;;;;;;2.80;2.57;;;-0.50;99.20;;;;;;4176024;28;20052;-92
2021/01/12 07:51:08;;;;;;;2.95;2.00;;;-0.40;99.10;;;;;;4168773;28;20561;-95
2021/01/12 07:53:13;;;;;;;3.25;2.63;;;-0.40;99.00;;;;;;4153384;28;20046;-95
2021/01/12 07:55:17;;;;;;;3.83;3.50;;;-0.40;99.00;;;;;;4137401;28;20063;-89
2021/01/12 07:57:18;;;;;;;5.82;4.50;;;-0.40;99.00;;;;;;4184429;28;20060;-91
2021/01/12 07:59:21;;;;;;;3.33;3.05;;;-0.30;99.00;;;;;;4149646;28;20064;-92
2021/01/12 08:01:26;;;;;;;4.13;3.78;;;-0.30;98.70;;;;;;4166720;28;20368;-93
2021/01/12 08:03:27;;;;;;;5.30;4.00;;;-0.20;98.60;;;;;;4150347;28;20046;-91
2021/01/12 08:05:29;;;;;;;3.95;3.67;;;-0.30;98.70;;;;;;4183830;28;20078;-91
2021/01/12 08:07:30;;;;;;;9.50;5.85;;;-0.30;98.90;;;;;;4166736;28;20124;-92
2021/01/12 08:09:31;;;;;;;2.70;2.53;;;-0.30;98.80;;;;;;4167806;28;20043;-95
2021/01/12 08:11:33;;;;;;;3.95;3.10;;;-0.20;98.80;;;;;;4184783;28;20084;-93
2021/01/12 08:13:34;;;;;;;3.42;2.40;;;-0.20;98.90;;;;;;4183762;28;20123;-92
2021/01/12 08:15:37;;;;;;;4.80;3.33;;;-0.20;98.70;;;;;;4182431;28;20489;-91
2021/01/12 08:17:46;;;;;;;3.38;2.47;;;-0.20;98.60;;;;;;4184739;28;20041;-92
2021/01/12 08:19:47;;;;;;;2.60;2.28;;;-0.20;98.80;;;;;;4182914;28;20051;-91
2021/01/12 08:21:49;;;;;;;4.13;3.35;;;-0.10;98.90;;;;;;4165268;28;20053;-86
2021/01/12 08:24:02;;;;;;;3.53;3.22;;;-0.10;98.80;;;;;;4183012;28;20049;-91
2021/01/12 08:26:10;;;;;;;6.30;4.28;;;-0.10;98.80;;;;;;4166095;28;20046;-89
2021/01/12 08:28:11;;;;;;;5.07;3.28;;;-0.10;98.80;;;;;;4167143;28;20520;-92
2021/01/12 08:30:13;;;;;;;3.55;3.15;;;-0.10;98.90;;;;;;4184156;28;20063;-93
2021/01/12 08:32:14;;;;;;;6.78;4.75;;;-0.10;98.90;;;;;;4165641;28;20056;-88
2021/01/12 08:34:20;;;;;;;5.15;4.65;;;-0.10;98.80;;;;;;4165937;28;20081;-87
2021/01/12 08:36:23;;;;;;;5.00;4.53;;;0.00;98.90;;;;;;4181106;28;20049;-88
2021/01/12 08:38:25;;;;;;;6.97;2.65;;;0.10;98.90;;;;;;4149634;28;20057;-88
2021/01/12 08:40:28;;;;;;;1.48;1.20;;;-0.10;99.00;;;;;;4185802;28;20049;-89
2021/01/12 08:42:31;;;;;;;3.30;3.10;;;0.00;99.20;;;;;;4187512;28;20489;-89
2021/01/12 08:44:38;;;;;;;2.40;2.20;;;0.00;99.00;;;;;;4169133;28;20049;-88
2021/01/12 08:46:40;;;;;;;6.03;3.85;;;0.10;98.90;;;;;;4183127;28;20079;-88
2021/01/12 08:48:48;;;;;;;5.53;4.78;;;0.10;98.90;;;;;;4165609;28;20132;-94
2021/01/12 08:50:52;;;;;;;5.25;3.40;;;0.10;98.90;;;;;;4185798;28;20489;-95
2021/01/12 08:52:53;;;;;;;3.42;3.22;;;0.10;99.00;;;;;;4183578;28;20041;-92
2021/01/12 08:54:55;;;;;;;6.00;3.22;;;0.10;99.00;;;;;;4184342;28;20049;-91
2021/01/12 08:56:57;;;;;;;4.43;2.22;;;0.10;98.90;;;;;;4187838;28;20436;-91
2021/01/12 08:59:08;;;;;;;4.32;3.92;;;0.20;98.90;;;;;;4186342;28;20045;-92
2021/01/12 09:01:09;;;;;;;2.58;2.15;;;0.20;98.90;;;;;;4153620;28;20109;-91
2021/01/12 09:03:13;;;;;;;4.45;4.05;;;0.20;99.00;;;;;;4168286;28;20069;-94
2021/01/12 09:05:14;;;;;;;9.15;3.72;;;0.20;98.90;;;;;;4185637;28;20053;-93
2021/01/12 09:07:17;;;;;;;2.78;2.53;;;0.20;99.10;;;;;;4185800;28;20087;-93
2021/01/12 09:09:18;;;;;;;8.80;2.13;;;0.20;99.10;;;;;;4152703;28;20061;-90
2021/01/12 09:11:19;;;;;;;5.65;3.50;;;0.20;99.10;;;;;;4183056;28;20060;-93
2021/01/12 09:13:27;;;;;;;7.80;4.80;;;0.20;99.10;;;;;;4167399;28;20520;-95
2021/01/12 09:15:30;;;;;;;2.50;2.28;;;0.30;99.10;;;;;;4165862;28;20109;-95
2021/01/12 09:17:31;;;;;;;3.30;3.03;;;0.30;99.20;;;;;;4182889;28;20596;-96
2021/01/12 09:19:34;;;;;;;5.18;3.95;;;0.30;99.00;;;;;;4172003;28;20045;-91
2021/01/12 09:21:35;;;;;;;6.38;3.88;;;0.40;99.10;;;;;;4186891;28;20140;-94
2021/01/12 09:23:37;;;;;;;4.78;3.92;;;0.40;98.80;;;;;;4185898;28;20079;-93
2021/01/12 09:25:49;;;;;;;1.83;1.27;;;0.50;98.90;;;;;;4183776;28;20055;-93
2021/01/12 09:27:50;;;;;;;4.00;3.45;;;0.50;98.80;;;;;;4168591;28;20057;-94
2021/01/12 09:29:51;;;;;;;2.50;2.30;;;0.50;99.10;;;;;;4166832;28;20506;-94
2021/01/12 09:31:52;;;;;;;5.97;3.72;;;0.50;99.00;;;;;;4166591;28;20107;-95
2021/01/12 09:33:54;;;;;;;9.57;3.17;;;0.50;99.00;;;;;;4188300;28;20051;-84
2021/01/12 09:36:07;;;;;;;1.50;1.40;;;0.50;99.00;;;;;;4182982;28;20073;-96
2021/01/12 09:38:08;;;;;;;2.45;2.35;;;0.60;98.90;;;;;;4196267;28;20076;-96
2021/01/12 09:40:10;;;;;;;3.05;2.85;;;0.60;98.90;;;;;;4161370;28;20029;-90
2021/01/12 09:42:11;;;;;;;12.73;5.18;;;0.60;98.80;;;;;;4200763;28;20064;-96
2021/01/12 09:44:12;;;;;;;4.25;3.90;;;0.60;98.90;;;;;;4201321;28;20072;-94
2021/01/12 09:46:14;;;;;;;5.32;4.43;;;0.60;99.00;;;;;;4201515;28;20084;-91
2021/01/12 09:48:16;;;;;;;8.13;3.80;;;0.60;99.00;;;;;;4199177;28;20025;-94
2021/01/12 09:50:17;;;;;;;4.38;2.97;;;0.70;99.10;;;;;;4197121;28;20028;-80
2021/01/12 09:52:18;;;;;;;4.32;3.08;;;0.70;99.00;;;;;;4192674;28;20024;-85
2021/01/12 09:54:19;;;;;;;2.97;2.78;;;0.70;99.10;;;;;;4198581;28;20045;-95
2021/01/12 09:56:21;;;;;;;6.93;3.63;;;0.70;99.10;;;;;;4198189;28;20135;-88
2021/01/12 09:58:22;;;;;;;3.15;2.75;;;0.70;99.10;;;;;;4197406;28;20728;-95
2021/01/12 10:00:24;;;;;;;3.33;2.60;;;0.80;99.00;;;;;;4195600;28;20109;-83
2021/01/12 10:02:25;;;;;;;3.63;3.33;;;0.80;99.00;;;;;;4192839;28;20176;-92
2021/01/12 10:04:26;;;;;;;3.45;2.78;;;0.90;99.00;;;;;;4174299;28;20132;-95
2021/01/12 10:06:32;;;;;;;1.17;0.73;;;0.90;99.00;;;;;;4165680;28;20053;-90
2021/01/12 10:08:33;;;;;;;2.75;1.95;;;0.90;99.00;;;;;;4181537;28;20051;-91
2021/01/12 10:10:34;;;;;;;2.30;2.08;;;0.90;99.20;;;;;;4155025;28;20113;-94
2021/01/12 10:12:36;;;;;;;2.25;2.05;;;1.00;99.30;;;;;;4184489;28;20048;-93
2021/01/12 10:14:37;;;;;;;7.97;2.92;;;0.90;99.30;;;;;;4187745;28;20052;-94
2021/01/12 10:16:38;;;;;;;3.72;3.25;;;1.00;99.20;;;;;;4186852;28;20095;-91
2021/01/12 10:18:40;;;;;;;2.42;1.83;;;1.00;99.10;;;;;;4185516;28;20045;-92
2021/01/12 10:20:42;;;;;;;2.08;1.80;;;1.00;99.20;;;;;;4185745;28;20353;-91
2021/01/12 10:22:44;;;;;;;2.13;2.00;;;1.00;99.30;;;;;;4153254;28;20521;-91
2021/01/12 10:24:45;;;;;;;7.13;3.13;;;1.10;99.10;;;;;;4188009;28;20044;-91
2021/01/12 10:26:52;;;;;;;1.70;1.55;;;1.20;99.30;;;;;;4184767;28;20124;-94
2021/01/12 10:28:53;;;;;;;5.22;2.55;;;1.20;99.30;;;;;;4167261;28;20046;-91
2021/01/12 10:30:54;;;;;;;4.20;1.85;;;1.30;99.20;;;;;;4185664;28;20049;-94
2021/01/12 10:32:56;;;;;;;3.33;2.97;;;1.30;99.00;;;;;;4183682;28;20125;-92
2021/01/12 10:34:58;;;;;;;3.95;2.40;;;1.30;99.10;;;;;;4186039;28;20464;-89
2021/01/12 10:37:00;;;;;;;7.22;3.05;;;1.40;98.90;;;;;;4169244;28;20187;-88
2021/01/12 10:39:01;;;;;;;2.67;2.47;;;1.40;98.90;;;;;;4189764;28;20052;-94
2021/01/12 10:41:02;;;;;;;2.47;1.75;;;1.50;98.90;;;;;;4185750;28;20416;-96
2021/01/12 10:43:04;;;;;;;8.32;2.28;;;1.60;98.70;;;;;;4183500;28;20055;-95